This is the latest recevied weather packets stored in our database for station/object KQ7A. If no packets are shown the sender has not sent any weather packets the latest 10 day(s).
| Time | Temp. | Humidity | Pressure | Rain* | Wind** | Luminosity | Snow |
|---|---|---|---|---|---|---|---|
| 1777929367 | 11.67° C | 70% | 1013.3 hPa | 0 mm | - | 487 W/m² | - |
| 1777928761 | 12.78° C | 65% | 1013.5 hPa | 0 mm | - | 287 W/m² | - |
| 1777926947 | 12.78° C | 69% | 1013.1 hPa | 0 mm | - | 409 W/m² | - |
| 1777925432 | 12.22° C | 68% | 1013 hPa | 0 mm | - | 254 W/m² | - |
| 1777920276 | 13.33° C | 63% | 1013 hPa | 0 mm | - | 342 W/m² | - |
| 1777919669 | 13.33° C | 62% | 1012.8 hPa | 0 mm | - | 805 W/m² | - |
| 1777919367 | 12.78° C | 68% | 1012.9 hPa | 0 mm | - | 515 W/m² | - |
| 1777918458 | 11.67° C | 70% | 1012.9 hPa | 0 mm | - | 378 W/m² | - |
| 1777918157 | 12.22° C | 73% | 1012.9 hPa | 0 mm | - | 331 W/m² | - |
| 1777917855 | 12.22° C | 74% | 1013.1 hPa | 0 mm | - | 298 W/m² | - |
| 1777917553 | 11.67° C | 73% | 1013.1 hPa | 0 mm | - | 272 W/m² | - |
| 1777916342 | 10.56° C | 81% | 1013 hPa | 1.78 mm | - | 185 W/m² | - |
| 1777916038 | 10.56° C | 84% | 1013.2 hPa | 1.27 mm | - | 124 W/m² | - |
| 1777915735 | 10° C | 84% | 1013.3 hPa | 1.27 mm | - | 103 W/m² | - |
| 1777915432 | 10° C | 89% | 1013.2 hPa | 1.27 mm | - | 140 W/m² | - |
| 1777915127 | 10° C | 88% | 1013.2 hPa | 1.78 mm | - | 186 W/m² | - |
| 1777914522 | 9.44° C | 89% | 1013.5 hPa | 1.27 mm | - | 70 W/m² | - |
| 1777914218 | 10° C | 85% | 1013.5 hPa | 1.27 mm | - | 29 W/m² | - |
| 1777913915 | 10.56° C | 81% | 1013.5 hPa | 0 mm | - | 21 W/m² | - |
| 1777913612 | 10.56° C | 79% | 1013.2 hPa | 0 mm | - | 17 W/m² | - |
| 1777913308 | 10.56° C | 77% | 1013.3 hPa | 0 mm | - | 17 W/m² | - |
| 1777912701 | 10.56° C | 76% | 1013.1 hPa | 0 mm | - | 34 W/m² | - |
| 1777912397 | 11.11° C | 72% | 1012.9 hPa | 0 mm | - | 39 W/m² | - |
| 1777912094 | 11.11° C | 71% | 1012.9 hPa | 0 mm | - | 50 W/m² | - |
| 1777911789 | 11.67° C | 71% | 1012.8 hPa | 0 mm | - | 58 W/m² | - |
* Rain latest hour (hover to see other rain measurements)
** Current wind speed in m/s (hover to see current wind gust speed)